ADW weather

Joint Base Andrews
Camp Springs, Maryland, United States

Public forecast

Using degrees Fahrenheit for public forecast. Weather courtesy of forecast.io.

Current aviation weather report (METAR) for Joint Base Andrews

Retrieved 2019/10/18 21:56 UTC (13 minutes ago):

KADW 182156Z AUTO 30008KT 10SM CLR 16/01 A2997 RMK AO2 SLP156 T01550012

Aviation forecast (TAF) for Joint Base Andrews

Retrieved 2019/10/18 17:52 UTC (4 hours ago):

TAF KADW 181742Z 1817/1923 31015KT 9999 SCT050 QNH2997INS TEMPO 1817/1820 32015G25KT BECMG 1822/1823 30012KT 9999 FEW030 QNH3001INS BECMG 1913/1914 03005KT 9999 SKC QNH3013INS BECMG 1918/1919 21008KT 9999 FEW060 QNH3009INS TX16/1820Z TN06/1909Z